createdAt,value
2019-03-01T00:02:28.061Z,100529.41
2019-03-01T00:05:24.579Z,100532.77
2019-03-01T00:08:11.442Z,100541.86
2019-03-01T00:11:31.335Z,100537.45
2019-03-01T00:14:56.961Z,100544.36
2019-03-01T00:18:09.651Z,100550.00
2019-03-01T00:21:12.099Z,100556.00
2019-03-01T00:24:43.881Z,100552.28
2019-03-01T00:28:03.071Z,100560.00
2019-03-01T00:31:16.523Z,100562.85
2019-03-01T00:34:23.595Z,100561.78
2019-03-01T00:37:14.577Z,100565.83
2019-03-01T00:40:27.864Z,100570.36
2019-03-01T00:43:38.199Z,100574.89
2019-03-01T00:46:07.693Z,100570.00
2019-03-01T00:48:37.251Z,100575.05
2019-03-01T00:51:06.800Z,100574.89
2019-03-01T00:53:36.297Z,100580.16
2019-03-01T00:56:05.721Z,100582.53
2019-03-01T00:58:35.267Z,100583.27
2019-03-01T01:01:04.819Z,100582.09
2019-03-01T01:03:35.710Z,100579.08
2019-03-01T01:06:05.269Z,100584.64
2019-03-01T01:08:34.720Z,100582.42
2019-03-01T01:11:04.276Z,100588.06
2019-03-01T01:13:33.769Z,100590.31
2019-03-01T01:16:03.278Z,100593.41
2019-03-01T01:18:32.776Z,100596.11
2019-03-01T01:21:02.618Z,100594.02
2019-03-01T01:23:32.095Z,100605.88
2019-03-01T01:26:01.670Z,100595.18
2019-03-01T01:28:31.163Z,100599.75
2019-03-01T01:31:00.690Z,100602.45
2019-03-01T01:33:30.272Z,100596.32
2019-03-01T01:35:59.735Z,100598.61
2019-03-01T01:38:29.206Z,100607.63
2019-03-01T01:40:58.763Z,100609.42
2019-03-01T01:43:28.229Z,100602.61
2019-03-01T01:45:57.778Z,100618.45
2019-03-01T01:48:27.377Z,100617.38
2019-03-01T01:50:57.019Z,100618.52
2019-03-01T01:53:26.574Z,100614.43
2019-03-01T01:55:56.040Z,100614.92
2019-03-01T01:58:25.547Z,100611.98
2019-03-01T02:00:55.023Z,100611.78
2019-03-01T02:03:24.482Z,100607.86
2019-03-01T02:05:53.961Z,100604.95
2019-03-01T02:08:23.579Z,100609.86
2019-03-01T02:10:53.007Z,100614.39
2019-03-01T02:13:22.507Z,100608.14
2019-03-01T02:15:51.962Z,100604.09
2019-03-01T02:18:21.475Z,100600.05
2019-03-01T02:20:50.942Z,100606.67
2019-03-01T02:23:20.373Z,100600.14
2019-03-01T02:25:49.928Z,100600.47
2019-03-01T02:28:19.343Z,100615.53
2019-03-01T02:30:49.389Z,100618.03
2019-03-01T02:33:19.031Z,100614.33
2019-03-01T02:35:48.595Z,100623.61
2019-03-01T02:38:18.101Z,100613.92
2019-03-01T02:40:47.637Z,100621.77
2019-03-01T02:43:17.097Z,100630.56
2019-03-01T02:45:46.648Z,100622.42
2019-03-01T02:48:16.190Z,100620.80
2019-03-01T02:50:45.763Z,100623.73
2019-03-01T02:53:17.382Z,100626.87
2019-03-01T02:55:47.017Z,100635.73
2019-03-01T02:58:16.528Z,100634.83
2019-03-01T03:00:45.991Z,100631.56
2019-03-01T03:03:15.525Z,100633.55
2019-03-01T03:06:02.521Z,100638.38
2019-03-01T03:08:32.115Z,100637.67
2019-03-01T03:11:01.546Z,100640.62
2019-03-01T03:13:31.081Z,100630.84
2019-03-01T03:16:00.650Z,100633.67
2019-03-01T03:18:30.204Z,100633.45
2019-03-01T03:20:59.747Z,100637.50
2019-03-01T03:23:29.288Z,100642.55
2019-03-01T03:25:58.702Z,100646.73
2019-03-01T03:28:28.197Z,100638.43
2019-03-01T03:30:58.244Z,100646.02
2019-03-01T03:33:27.764Z,100643.81
2019-03-01T03:35:57.263Z,100541.71
2019-03-01T03:38:26.857Z,100640.27
2019-03-01T03:40:56.425Z,100642.34
2019-03-01T03:43:25.895Z,100635.09
2019-03-01T03:45:55.363Z,100642.19
2019-03-01T03:48:24.892Z,100642.89
2019-03-01T03:50:54.382Z,100642.94
2019-03-01T03:53:23.832Z,100644.47
2019-03-01T03:55:53.309Z,100650.57
2019-03-01T03:58:22.776Z,100654.58
2019-03-01T04:00:52.252Z,100655.36
2019-03-01T04:03:21.760Z,100652.91
2019-03-01T04:05:52.137Z,100660.72
2019-03-01T04:08:21.595Z,100653.69
2019-03-01T04:10:51.043Z,100656.43
2019-03-01T04:13:20.568Z,100653.08
2019-03-01T04:15:50.038Z,100652.45
2019-03-01T04:18:19.562Z,100654.50
2019-03-01T04:20:49.667Z,100655.36
2019-03-01T04:23:19.240Z,100653.87
2019-03-01T04:25:48.754Z,100656.09
2019-03-01T04:28:18.277Z,100660.47
2019-03-01T04:30:47.745Z,100664.39
2019-03-01T04:33:17.224Z,100667.94
2019-03-01T04:35:46.765Z,100668.77
2019-03-01T04:38:16.231Z,100664.59
2019-03-01T04:40:45.769Z,100668.64
2019-03-01T04:43:15.253Z,100664.09
2019-03-01T04:45:44.735Z,100675.59
2019-03-01T04:48:14.268Z,100676.25
2019-03-01T04:50:43.757Z,100673.72
2019-03-01T04:53:13.557Z,100674.60
2019-03-01T04:55:43.087Z,100673.98
2019-03-01T04:58:12.670Z,100677.45
2019-03-01T05:00:42.131Z,100671.48
2019-03-01T05:03:11.714Z,100678.33
2019-03-01T05:05:41.564Z,100683.14
2019-03-01T05:08:11.038Z,100686.61
2019-03-01T05:10:40.525Z,100691.14
2019-03-01T05:13:10.048Z,100682.08
2019-03-01T05:15:39.637Z,100693.20
2019-03-01T05:18:09.084Z,100699.44
2019-03-01T05:20:38.597Z,100699.41
2019-03-01T05:23:08.088Z,100701.75
2019-03-01T05:25:37.518Z,100700.53
2019-03-01T05:28:07.133Z,100709.03
2019-03-01T05:30:36.566Z,100712.14
2019-03-01T05:33:06.105Z,100710.05
2019-03-01T05:35:35.633Z,100711.11
2019-03-01T05:38:05.147Z,100713.66
2019-03-01T05:40:34.658Z,100713.86
2019-03-01T05:43:04.155Z,100724.36
2019-03-01T05:45:33.600Z,100723.88
2019-03-01T05:48:03.181Z,100729.97
2019-03-01T05:50:32.630Z,100733.52
2019-03-01T05:53:02.110Z,100732.02
2019-03-01T05:55:31.693Z,100744.16
2019-03-01T05:58:32.168Z,100745.87
2019-03-01T06:01:11.537Z,100751.59
2019-03-01T06:04:13.893Z,100752.62
2019-03-01T06:07:04.618Z,100756.17
2019-03-01T06:09:55.356Z,100756.50
2019-03-01T06:12:55.011Z,100767.09
2019-03-01T06:15:49.859Z,100762.22
2019-03-01T06:18:42.332Z,100767.73
2019-03-01T06:21:37.203Z,100771.11
2019-03-01T06:24:38.897Z,100781.88
2019-03-01T06:27:46.231Z,100782.97
2019-03-01T06:31:07.639Z,100787.23
2019-03-01T06:34:04.925Z,100790.11
2019-03-01T06:36:49.057Z,100787.20
2019-03-01T06:40:09.923Z,100791.89
2019-03-01T06:43:07.289Z,100791.55
2019-03-01T06:46:12.047Z,100794.25
2019-03-01T06:49:00.734Z,100790.41
2019-03-01T06:51:32.902Z,100802.90
2019-03-01T06:54:02.362Z,100803.20
2019-03-01T06:56:31.833Z,100804.97
2019-03-01T06:59:06.305Z,100815.16
2019-03-01T07:01:40.671Z,100812.92
2019-03-01T07:04:17.925Z,100812.51
2019-03-01T07:06:47.505Z,100812.72
2019-03-01T07:09:16.993Z,100826.27
2019-03-01T07:11:46.582Z,100832.88
2019-03-01T07:14:16.166Z,100824.14
2019-03-01T07:16:45.614Z,100826.19
2019-03-01T07:19:15.304Z,100819.28
2019-03-01T07:21:44.910Z,100830.81
2019-03-01T07:24:14.498Z,100834.86
2019-03-01T07:26:44.019Z,100836.05
2019-03-01T07:29:13.964Z,100835.56
2019-03-01T07:31:43.409Z,100837.61
2019-03-01T07:34:13.916Z,100829.38
2019-03-01T07:36:43.453Z,100825.33
2019-03-01T07:39:13.117Z,100831.06
2019-03-01T07:41:42.708Z,100823.33
2019-03-01T07:44:12.162Z,100828.86
2019-03-01T07:46:42.038Z,100832.70
2019-03-01T07:49:11.636Z,100827.91
2019-03-01T07:51:41.169Z,100835.06
2019-03-01T07:54:13.342Z,100828.27
2019-03-01T07:56:41.936Z,100830.17
2019-03-01T07:59:11.481Z,100835.12
2019-03-01T08:01:41.028Z,100840.52
2019-03-01T08:04:10.705Z,100846.52
2019-03-01T08:06:40.191Z,100849.92
2019-03-01T08:09:13.396Z,100854.67
2019-03-01T08:11:42.968Z,100862.70
2019-03-01T08:14:12.984Z,100859.22
2019-03-01T08:16:42.448Z,100871.79
2019-03-01T08:19:11.961Z,100872.86
2019-03-01T08:21:42.617Z,100874.41
2019-03-01T08:24:12.866Z,100880.02
2019-03-01T08:26:42.385Z,100883.42
2019-03-01T08:29:11.926Z,100882.77
2019-03-01T08:31:41.430Z,100882.65
2019-03-01T08:34:10.999Z,100877.58
2019-03-01T08:36:42.548Z,100879.66
2019-03-01T08:39:11.774Z,100883.92
2019-03-01T08:41:41.334Z,100882.05
2019-03-01T08:44:10.865Z,100885.11
2019-03-01T08:46:42.086Z,100888.18
2019-03-01T08:49:11.576Z,100886.67
2019-03-01T08:51:41.165Z,100875.50
2019-03-01T08:54:10.644Z,100885.48
2019-03-01T08:56:40.168Z,100889.00
2019-03-01T08:59:09.703Z,100882.78
2019-03-01T09:01:41.669Z,100891.70
2019-03-01T09:04:14.261Z,100900.02
2019-03-01T09:06:43.528Z,100895.97
2019-03-01T09:09:13.040Z,100900.88
2019-03-01T09:11:44.733Z,100905.08
2019-03-01T09:14:13.930Z,100917.15
2019-03-01T09:16:43.460Z,100917.47
2019-03-01T09:19:12.990Z,100910.50
2019-03-01T09:21:44.709Z,100923.77
2019-03-01T09:24:13.712Z,100923.92
2019-03-01T09:26:45.634Z,100912.75
2019-03-01T09:29:18.460Z,100913.12
2019-03-01T09:31:46.430Z,100923.77
2019-03-01T09:34:15.982Z,100917.88
2019-03-01T09:36:48.201Z,100904.58
2019-03-01T09:39:19.247Z,100904.09
2019-03-01T09:41:48.962Z,100906.51
2019-03-01T09:44:18.543Z,100905.73
2019-03-01T09:46:48.059Z,100903.73
2019-03-01T09:49:18.069Z,100903.94
2019-03-01T09:51:49.979Z,100907.22
2019-03-01T09:54:18.973Z,100916.51
2019-03-01T09:56:48.549Z,100925.31
2019-03-01T09:59:18.326Z,100919.26
2019-03-01T10:01:47.815Z,100916.06
2019-03-01T10:04:17.426Z,100910.54
2019-03-01T10:06:47.390Z,100909.52
2019-03-01T10:09:17.382Z,100908.05
2019-03-01T10:11:46.898Z,100914.64
2019-03-01T10:14:16.507Z,100915.13
2019-03-01T10:16:46.021Z,100918.32
2019-03-01T10:19:15.527Z,100920.53
2019-03-01T10:21:45.145Z,100921.88
2019-03-01T10:24:14.755Z,100929.13
2019-03-01T10:26:44.263Z,100916.48
2019-03-01T10:29:33.084Z,100917.83
2019-03-01T10:32:02.580Z,100920.20
2019-03-01T10:34:32.704Z,100915.98
2019-03-01T10:37:02.243Z,100908.37
2019-03-01T10:39:31.920Z,100908.37
2019-03-01T10:42:01.419Z,100902.97
2019-03-01T10:44:30.972Z,100909.52
2019-03-01T10:47:00.568Z,100913.03
2019-03-01T10:49:30.157Z,100920.92
2019-03-01T10:51:59.698Z,100917.16
2019-03-01T10:54:29.245Z,100920.84
2019-03-01T10:56:58.815Z,100916.59
2019-03-01T10:59:28.445Z,100919.28
2019-03-01T11:01:57.930Z,100918.42
2019-03-01T11:04:27.563Z,100918.79
2019-03-01T11:06:57.879Z,100918.14
2019-03-01T11:09:27.414Z,100925.10
2019-03-01T11:11:57.067Z,100921.26
2019-03-01T11:14:26.648Z,100916.55
2019-03-01T11:16:56.338Z,100920.81
2019-03-01T11:19:25.945Z,100916.14
2019-03-01T11:21:55.472Z,100915.13
2019-03-01T11:24:25.029Z,100919.39
2019-03-01T11:26:54.624Z,100912.63
2019-03-01T11:29:24.133Z,100918.28
2019-03-01T11:31:56.700Z,100910.54
2019-03-01T11:34:26.238Z,100911.89
2019-03-01T11:36:55.766Z,100912.25
2019-03-01T11:39:29.187Z,100909.55
2019-03-01T11:41:58.734Z,100901.45
2019-03-01T11:44:28.482Z,100896.38
2019-03-01T11:46:58.503Z,100886.92
2019-03-01T11:49:27.988Z,100888.64
2019-03-01T11:51:57.595Z,100896.75
2019-03-01T11:54:27.534Z,100893.19
2019-03-01T11:56:57.454Z,100891.84
2019-03-01T11:59:27.020Z,100900.80
2019-03-01T12:01:56.564Z,100897.61
2019-03-01T12:04:26.076Z,100901.66
2019-03-01T12:06:55.638Z,100888.64
2019-03-01T12:09:25.136Z,100889.99
2019-03-01T12:11:55.987Z,100887.78
2019-03-01T12:14:25.466Z,100878.62
2019-03-01T12:16:55.016Z,100890.70
2019-03-01T12:19:24.659Z,100897.24
2019-03-01T12:21:54.176Z,100899.38
2019-03-01T12:24:23.744Z,100899.16
2019-03-01T12:26:53.281Z,100892.70
2019-03-01T12:29:22.827Z,100886.59
2019-03-01T12:31:52.353Z,100885.73
2019-03-01T12:34:21.917Z,100880.34
2019-03-01T12:36:51.388Z,100887.45
2019-03-01T12:39:20.877Z,100879.69
2019-03-01T12:41:50.437Z,100881.41
2019-03-01T12:44:19.895Z,100871.30
2019-03-01T12:46:49.479Z,100872.36
2019-03-01T12:49:19.073Z,100873.55
2019-03-01T12:51:48.665Z,100868.88
2019-03-01T12:54:18.130Z,100862.95
2019-03-01T12:56:47.749Z,100861.48
2019-03-01T12:59:17.259Z,100867.21
2019-03-01T13:01:46.971Z,100860.46
2019-03-01T13:04:18.656Z,100862.17
2019-03-01T13:06:47.835Z,100861.19
2019-03-01T13:09:17.893Z,100862.91
2019-03-01T13:11:48.584Z,100864.78
2019-03-01T13:14:20.261Z,100871.99
2019-03-01T13:16:49.848Z,100871.53
2019-03-01T13:19:19.424Z,100868.30
2019-03-01T13:21:49.315Z,100869.30
2019-03-01T13:24:18.963Z,100879.11
2019-03-01T13:26:48.574Z,100879.11
2019-03-01T13:29:19.111Z,100882.80
2019-03-01T13:31:49.453Z,100878.28
2019-03-01T13:34:19.002Z,100875.59
2019-03-01T13:36:48.514Z,100873.34
2019-03-01T13:39:18.172Z,100871.13
2019-03-01T13:41:48.253Z,100862.17
2019-03-01T13:44:17.916Z,100861.97
2019-03-01T13:46:47.437Z,100876.98
2019-03-01T13:49:17.037Z,100875.06
2019-03-01T13:51:49.475Z,100874.00
2019-03-01T13:54:17.755Z,100880.20
2019-03-01T13:56:47.355Z,100875.92
2019-03-01T13:59:16.911Z,100877.92
2019-03-01T14:01:47.743Z,100881.27
2019-03-01T14:04:17.447Z,100871.61
2019-03-01T14:06:47.051Z,100871.77
2019-03-01T14:09:16.709Z,100868.42
2019-03-01T14:11:46.296Z,100863.88
2019-03-01T14:14:15.846Z,100861.88
2019-03-01T14:16:45.469Z,100859.39
2019-03-01T14:19:15.022Z,100858.03
2019-03-01T14:21:44.632Z,100860.94
2019-03-01T14:24:14.306Z,100855.91
2019-03-01T14:26:43.872Z,100857.09
2019-03-01T14:29:16.063Z,100860.16
2019-03-01T14:31:44.603Z,100856.45
2019-03-01T14:34:14.211Z,100851.05
2019-03-01T14:36:43.963Z,100852.39
2019-03-01T14:39:18.219Z,100849.20
2019-03-01T14:41:47.750Z,100852.39
2019-03-01T14:44:17.375Z,100850.19
2019-03-01T14:46:47.060Z,100848.99
2019-03-01T14:49:18.534Z,100843.23
2019-03-01T14:51:47.928Z,100848.30
2019-03-01T14:54:17.503Z,100845.72
2019-03-01T14:56:54.114Z,100840.81
2019-03-01T14:59:38.370Z,100836.44
2019-03-01T15:02:22.314Z,100833.86
2019-03-01T15:04:51.841Z,100836.72
2019-03-01T15:07:22.044Z,100838.72
2019-03-01T15:09:53.245Z,100833.32
2019-03-01T15:12:22.887Z,100832.47
2019-03-01T15:14:52.703Z,100832.91
2019-03-01T15:17:22.698Z,100836.55
2019-03-01T15:19:52.788Z,100826.97
2019-03-01T15:22:22.382Z,100829.74
2019-03-01T15:24:51.954Z,100827.48
2019-03-01T15:27:21.450Z,100833.45
2019-03-01T15:29:51.040Z,100828.33
2019-03-01T15:32:20.504Z,100827.14
2019-03-01T15:34:49.977Z,100818.89
2019-03-01T15:37:20.538Z,100819.25
2019-03-01T15:39:51.209Z,100826.34
2019-03-01T15:42:21.282Z,100829.12
2019-03-01T15:44:50.922Z,100825.77
2019-03-01T15:47:20.394Z,100826.34
2019-03-01T15:49:51.407Z,100827.74
2019-03-01T15:52:21.143Z,100825.62
2019-03-01T15:54:50.987Z,100823.98
2019-03-01T15:57:20.458Z,100826.37
2019-03-01T15:59:50.070Z,100827.92
2019-03-01T16:02:19.557Z,100826.08
2019-03-01T16:04:49.072Z,100825.80
2019-03-01T16:07:21.870Z,100830.21
2019-03-01T16:09:51.433Z,100825.51
2019-03-01T16:12:21.489Z,100833.61
2019-03-01T16:14:51.055Z,100836.15
2019-03-01T16:17:21.852Z,100836.31
2019-03-01T16:19:53.411Z,100838.31
2019-03-01T16:22:23.283Z,100832.91
2019-03-01T16:24:52.821Z,100833.04
2019-03-01T16:27:22.466Z,100840.16
2019-03-01T16:29:52.257Z,100837.95
2019-03-01T16:32:21.798Z,100836.59
2019-03-01T16:34:51.399Z,100845.19
2019-03-01T16:37:22.642Z,100844.20
2019-03-01T16:39:56.230Z,100849.59
2019-03-01T16:42:24.231Z,100841.14
2019-03-01T16:44:53.856Z,100844.85
2019-03-01T16:47:23.477Z,100847.47
2019-03-01T16:49:53.004Z,100849.70
2019-03-01T16:52:22.578Z,100855.09
2019-03-01T16:54:52.776Z,100859.00
2019-03-01T16:57:23.557Z,100858.33
2019-03-01T16:59:53.194Z,100847.64
2019-03-01T17:02:22.843Z,100846.20
2019-03-01T17:04:52.439Z,100843.30
2019-03-01T17:07:25.062Z,100840.87
2019-03-01T17:09:54.977Z,100837.84
2019-03-01T17:12:24.977Z,100835.76
2019-03-01T17:14:54.787Z,100838.77
2019-03-01T17:17:24.402Z,100839.75
2019-03-01T17:19:54.765Z,100837.41
2019-03-01T17:22:26.450Z,100839.68
2019-03-01T17:24:56.740Z,100842.86
2019-03-01T17:27:26.557Z,100847.91
2019-03-01T17:29:56.603Z,100847.37
2019-03-01T17:32:26.554Z,100854.05
2019-03-01T17:34:56.676Z,100846.50
2019-03-01T17:37:28.856Z,100845.36
2019-03-01T17:39:58.056Z,100838.33
2019-03-01T17:42:28.020Z,100840.75
2019-03-01T17:44:57.797Z,100842.59
2019-03-01T17:47:27.310Z,100843.45
2019-03-01T17:49:57.086Z,100845.16
2019-03-01T17:52:26.792Z,100846.52
2019-03-01T17:54:57.499Z,100845.16
2019-03-01T17:57:29.154Z,100848.97
2019-03-01T18:00:00.685Z,100850.92
2019-03-01T18:02:30.898Z,100844.52
2019-03-01T18:05:00.705Z,100836.95
2019-03-01T18:07:30.818Z,100840.59
2019-03-01T18:10:00.737Z,100837.83
2019-03-01T18:12:30.407Z,100836.27
2019-03-01T18:15:00.323Z,100839.03
2019-03-01T18:17:32.903Z,100835.91
2019-03-01T18:20:02.737Z,100830.09
2019-03-01T18:22:32.471Z,100831.72
2019-03-01T18:25:02.947Z,100832.36
2019-03-01T18:27:33.139Z,100832.80
2019-03-01T18:30:02.977Z,100830.59
2019-03-01T18:32:32.884Z,100830.86
2019-03-01T18:35:02.776Z,100825.53
2019-03-01T18:37:32.293Z,100825.25
2019-03-01T18:40:01.832Z,100824.48
2019-03-01T18:42:34.371Z,100825.77
2019-03-01T18:45:03.521Z,100815.61
2019-03-01T18:47:33.963Z,100814.05
2019-03-01T18:50:03.465Z,100815.69
2019-03-01T18:52:33.106Z,100808.87
2019-03-01T18:55:02.596Z,100804.05
2019-03-01T18:57:32.199Z,100804.13
2019-03-01T19:00:01.837Z,100806.02
2019-03-01T19:02:31.398Z,100800.34
2019-03-01T19:05:04.530Z,100801.41
2019-03-01T19:07:32.477Z,100799.03
2019-03-01T19:10:02.059Z,100787.75
2019-03-01T19:12:31.619Z,100789.95
2019-03-01T19:15:01.166Z,100790.45
2019-03-01T19:17:30.732Z,100790.11
2019-03-01T19:20:01.971Z,100778.95
2019-03-01T19:22:31.642Z,100786.06
2019-03-01T19:25:01.278Z,100778.80
2019-03-01T19:27:30.820Z,100778.47
2019-03-01T19:30:00.610Z,100780.09
2019-03-01T19:32:30.153Z,100776.98
2019-03-01T19:34:59.647Z,100776.98
2019-03-01T19:37:29.354Z,100779.20
2019-03-01T19:39:58.810Z,100779.89
2019-03-01T19:42:29.490Z,100776.20
2019-03-01T19:45:00.751Z,100774.78
2019-03-01T19:47:30.925Z,100767.41
2019-03-01T19:50:00.582Z,100770.31
2019-03-01T19:52:30.145Z,100778.11
2019-03-01T19:54:59.708Z,100766.20
2019-03-01T19:57:29.163Z,100768.33
2019-03-01T19:59:58.692Z,100771.34
2019-03-01T20:02:30.968Z,100764.88
2019-03-01T20:04:59.395Z,100761.16
2019-03-01T20:07:28.950Z,100745.19
2019-03-01T20:09:58.475Z,100745.19
2019-03-01T20:12:28.039Z,100737.19
2019-03-01T20:14:58.006Z,100739.08
2019-03-01T20:17:30.332Z,100736.30
2019-03-01T20:19:58.858Z,100731.69
2019-03-01T20:22:28.452Z,100732.83
2019-03-01T20:24:58.932Z,100731.40
2019-03-01T20:27:28.491Z,100731.80
2019-03-01T20:29:58.054Z,100730.53
2019-03-01T20:32:27.605Z,100725.34
2019-03-01T20:34:57.124Z,100730.45
2019-03-01T20:37:27.834Z,100730.66
2019-03-01T20:39:57.878Z,100730.48
2019-03-01T20:42:27.371Z,100725.95
2019-03-01T20:44:56.962Z,100721.91
2019-03-01T20:47:26.410Z,100724.11
2019-03-01T20:49:56.028Z,100721.05
2019-03-01T20:52:25.923Z,100719.70
2019-03-01T20:54:57.784Z,100712.58
2019-03-01T20:57:27.084Z,100716.62
2019-03-01T20:59:57.764Z,100708.53
2019-03-01T21:02:27.247Z,100715.45
2019-03-01T21:04:56.798Z,100719.66
2019-03-01T21:07:26.257Z,100714.25
2019-03-01T21:09:55.762Z,100712.38
2019-03-01T21:12:25.751Z,100706.48
2019-03-01T21:14:55.257Z,100713.60
2019-03-01T21:17:24.826Z,100699.05
2019-03-01T21:19:54.337Z,100705.02
2019-03-01T21:22:23.933Z,100698.16
2019-03-01T21:24:53.623Z,100695.30
2019-03-01T21:27:25.918Z,100697.26
2019-03-01T21:29:54.753Z,100693.63
2019-03-01T21:32:24.265Z,100701.18
2019-03-01T21:34:55.327Z,100704.53
2019-03-01T21:37:24.825Z,100704.86
2019-03-01T21:39:55.595Z,100705.36
2019-03-01T21:42:25.718Z,100694.07
2019-03-01T21:44:55.206Z,100693.09
2019-03-01T21:47:24.931Z,100689.90
2019-03-01T21:49:54.495Z,100695.09
2019-03-01T21:52:26.555Z,100686.91
2019-03-01T21:54:55.298Z,100682.59
2019-03-01T21:57:27.555Z,100682.84
2019-03-01T21:59:57.180Z,100688.36
2019-03-01T22:02:26.730Z,100677.52
2019-03-01T22:04:56.311Z,100682.62
2019-03-01T22:07:25.783Z,100671.54
2019-03-01T22:09:56.722Z,100665.48
2019-03-01T22:12:26.572Z,100671.09
2019-03-01T22:14:56.160Z,100669.25
2019-03-01T22:17:25.689Z,100666.70
2019-03-01T22:19:55.267Z,100670.88
2019-03-01T22:22:24.773Z,100673.45
2019-03-01T22:24:54.375Z,100665.48
2019-03-01T22:27:25.297Z,100661.73
2019-03-01T22:29:55.215Z,100659.19
2019-03-01T22:32:24.808Z,100664.59
2019-03-01T22:34:54.321Z,100660.23
2019-03-01T22:37:24.752Z,100658.47
2019-03-01T22:39:55.197Z,100653.73
2019-03-01T22:42:24.682Z,100655.94
2019-03-01T22:44:54.195Z,100646.00
2019-03-01T22:47:23.913Z,100646.33
2019-03-01T22:49:53.451Z,100648.50
2019-03-01T22:52:26.639Z,100648.22
2019-03-01T22:54:57.645Z,100659.29
2019-03-01T22:57:26.741Z,100649.80
2019-03-01T22:59:56.350Z,100652.58
2019-03-01T23:02:26.260Z,100654.50
2019-03-01T23:04:55.969Z,100655.31
2019-03-01T23:07:26.397Z,100644.44
2019-03-01T23:09:56.686Z,100652.53
2019-03-01T23:12:26.446Z,100645.38
2019-03-01T23:14:55.973Z,100644.68
2019-03-01T23:17:27.535Z,100646.19
2019-03-01T23:19:56.769Z,100640.35
2019-03-01T23:22:26.315Z,100636.56
2019-03-01T23:24:55.807Z,100632.64
2019-03-01T23:27:28.449Z,100623.00
2019-03-01T23:29:56.668Z,100622.75
2019-03-01T23:32:26.152Z,100624.14
2019-03-01T23:34:56.164Z,100621.36
2019-03-01T23:37:25.729Z,100616.53
2019-03-01T23:39:57.045Z,100617.38
2019-03-01T23:42:26.410Z,100616.04
2019-03-01T23:44:55.999Z,100615.02
2019-03-01T23:47:25.739Z,100612.32
2019-03-01T23:49:55.682Z,100611.46
2019-03-01T23:52:27.364Z,100603.89
2019-03-01T23:54:56.892Z,100607.78
2019-03-01T23:57:26.375Z,100612.97
2019-03-01T23:59:58.658Z,100599.08
